Time;durP1;ratioP1;P1;durP2;ratioP2;P2;SDS_P1;SDS_P2;PMS_P1;PMS_P2;Temp;Humidity;BMP_temperature;BMP_pressure;BME280_temperature;BME280_humidity;BME280_pressure;Samples;Min_cycle;Max_cycle;Signal;HPM_P1;HPM_P2
2020/12/20 00:01:20;;;;;;;10.93;7.22;;;8.60;99.90;;;;;;5000666;28;20480;-79
2020/12/20 00:04:08;;;;;;;13.65;7.80;;;8.70;99.90;;;;;;4982486;28;20145;-79
2020/12/20 00:06:41;;;;;;;11.57;7.80;;;8.80;99.90;;;;;;5006586;28;20519;-80
2020/12/20 00:09:17;;;;;;;13.73;8.10;;;8.80;99.90;;;;;;5000174;28;20077;-79
2020/12/20 00:11:45;;;;;;;12.77;7.60;;;8.80;99.90;;;;;;5008287;28;20042;-79
2020/12/20 00:14:27;;;;;;;12.38;7.72;;;8.80;99.90;;;;;;5004061;28;20502;-79
2020/12/20 00:17:08;;;;;;;10.60;7.13;;;8.80;99.90;;;;;;4998611;28;20049;-78
2020/12/20 00:19:35;;;;;;;12.48;7.13;;;8.70;99.90;;;;;;5008235;28;20133;-80
2020/12/20 00:22:06;;;;;;;12.40;7.05;;;8.60;99.90;;;;;;5010015;28;20073;-79
2020/12/20 00:24:32;;;;;;;9.80;6.63;;;8.50;99.90;;;;;;4994919;28;20124;-78
2020/12/20 00:26:59;;;;;;;10.32;7.22;;;8.40;99.90;;;;;;4996759;28;20340;-79
2020/12/20 00:29:27;;;;;;;11.30;8.05;;;8.40;99.90;;;;;;4991401;28;20365;-79
2020/12/20 00:31:53;;;;;;;11.95;7.45;;;8.40;99.90;;;;;;4999459;28;20046;-79
2020/12/20 00:34:39;;;;;;;13.60;7.80;;;8.50;99.90;;;;;;4982378;28;20080;-78
2020/12/20 00:37:06;;;;;;;11.85;7.30;;;8.60;99.90;;;;;;4993408;28;20394;-79
2020/12/20 00:39:53;;;;;;;18.33;7.43;;;8.50;99.90;;;;;;4973543;28;20045;-80
2020/12/20 00:42:19;;;;;;;12.32;7.20;;;8.50;99.90;;;;;;5008387;28;20067;-79
2020/12/20 00:44:45;;;;;;;;;;;8.60;99.90;;;;;;5012713;28;20046;-79
2020/12/20 00:47:11;;;;;;;11.82;7.90;;;8.60;99.90;;;;;;5008219;28;20441;-79
2020/12/20 00:49:37;;;;;;;12.48;7.22;;;8.60;99.90;;;;;;4997900;28;20042;-78
2020/12/20 00:52:07;;;;;;;14.30;7.07;;;8.50;99.90;;;;;;5006491;28;20038;-79
2020/12/20 00:54:33;;;;;;;13.23;8.18;;;8.50;99.90;;;;;;4997968;28;20133;-78
2020/12/20 00:57:00;;;;;;;13.13;7.07;;;8.50;99.90;;;;;;4981738;28;20121;-78
2020/12/20 00:59:26;;;;;;;11.38;7.63;;;8.50;99.90;;;;;;5001148;28;20042;-78
2020/12/20 01:01:56;;;;;;;11.32;7.45;;;8.60;99.90;;;;;;5002696;28;20136;-78
2020/12/20 01:04:22;;;;;;;13.77;7.20;;;8.60;99.90;;;;;;5009249;28;20038;-79
2020/12/20 01:06:47;;;;;;;11.60;6.63;;;8.60;99.90;;;;;;5012330;28;20042;-79
2020/12/20 01:09:16;;;;;;;10.27;7.20;;;8.60;99.90;;;;;;5013996;28;20038;-80
2020/12/20 01:12:03;;;;;;;8.95;6.90;;;8.50;99.90;;;;;;4996325;28;20074;-79
2020/12/20 01:14:29;;;;;;;11.45;7.00;;;8.40;99.90;;;;;;5005272;28;20034;-79
2020/12/20 01:16:55;;;;;;;13.82;7.32;;;8.30;99.90;;;;;;4982810;28;20384;-80
2020/12/20 01:19:20;;;;;;;13.40;7.45;;;8.30;99.90;;;;;;4994863;28;20450;-79
2020/12/20 01:21:46;;;;;;;10.82;6.72;;;8.30;99.90;;;;;;4996152;28;20045;-81
2020/12/20 01:24:12;;;;;;;9.43;7.03;;;8.30;99.90;;;;;;5019771;28;20037;-79
2020/12/20 01:26:38;;;;;;;10.48;7.20;;;8.30;99.90;;;;;;4999994;28;20057;-80
2020/12/20 01:29:23;;;;;;;11.88;6.85;;;8.20;99.90;;;;;;4977307;28;20423;-81
2020/12/20 01:32:09;;;;;;;10.75;6.97;;;8.20;99.90;;;;;;4989778;28;20133;-80
2020/12/20 01:34:35;;;;;;;13.00;7.57;;;8.20;99.90;;;;;;5009858;28;20161;-80
2020/12/20 01:37:20;;;;;;;16.02;7.28;;;8.20;99.90;;;;;;4985614;28;20140;-79
2020/12/20 01:40:08;;;;;;;11.43;7.47;;;8.20;99.90;;;;;;4988379;28;20050;-79
2020/12/20 01:42:34;;;;;;;11.50;7.47;;;8.00;99.90;;;;;;4998990;28;20046;-79
2020/12/20 01:45:20;;;;;;;10.73;6.57;;;8.10;99.90;;;;;;5003408;28;20119;-80
2020/12/20 01:47:46;;;;;;;;;;;8.00;99.90;;;;;;4998705;28;20042;-79
2020/12/20 01:50:12;;;;;;;11.60;7.22;;;8.00;99.90;;;;;;4989231;28;19929;-80
2020/12/20 01:52:38;;;;;;;12.68;7.28;;;7.90;99.90;;;;;;5005446;28;20034;-79
2020/12/20 01:55:26;;;;;;;12.55;7.20;;;7.90;99.90;;;;;;4982615;28;20050;-78
2020/12/20 01:57:53;;;;;;;11.57;6.93;;;7.90;99.90;;;;;;5011889;28;20041;-79
2020/12/20 02:00:39;;;;;;;11.82;7.40;;;7.90;99.90;;;;;;4983740;28;20506;-79
2020/12/20 02:03:26;;;;;;;11.32;7.10;;;7.90;99.90;;;;;;4971824;28;20061;-79
2020/12/20 02:06:14;;;;;;;10.10;7.22;;;7.90;99.90;;;;;;4986443;28;20046;-80
2020/12/20 02:08:40;;;;;;;13.75;7.07;;;8.00;99.90;;;;;;5006781;28;20479;-78
2020/12/20 02:11:26;;;;;;;14.05;7.90;;;7.90;99.90;;;;;;4997213;28;20542;-78
2020/12/20 02:13:52;;;;;;;13.95;6.72;;;8.00;99.90;;;;;;5011847;28;20046;-77
2020/12/20 02:16:18;;;;;;;;;;;8.00;99.90;;;;;;5011394;28;20092;-78
2020/12/20 02:18:44;;;;;;;13.35;7.40;;;8.10;99.90;;;;;;5021288;28;19927;-78
2020/12/20 02:21:16;;;;;;;11.23;7.13;;;8.00;99.90;;;;;;4993718;28;20049;-79
2020/12/20 02:24:01;;;;;;;12.27;6.72;;;8.00;99.90;;;;;;4996866;28;20128;-79
2020/12/20 02:26:29;;;;;;;11.40;7.25;;;8.00;99.90;;;;;;5010995;28;20112;-78
2020/12/20 02:28:56;;;;;;;11.73;6.93;;;7.90;99.90;;;;;;5002618;28;20093;-80
2020/12/20 02:31:42;;;;;;;10.57;6.82;;;8.00;99.90;;;;;;5000875;28;20046;-78
2020/12/20 02:34:09;;;;;;;11.27;7.28;;;8.00;99.90;;;;;;5003791;28;20399;-80
2020/12/20 02:36:36;;;;;;;13.63;7.30;;;8.00;99.90;;;;;;5000654;28;20113;-79
2020/12/20 02:39:04;;;;;;;11.07;7.15;;;8.00;99.90;;;;;;5005062;28;20093;-77
2020/12/20 02:41:31;;;;;;;11.57;7.43;;;8.10;99.90;;;;;;5000033;28;20480;-78
2020/12/20 02:43:58;;;;;;;10.88;6.95;;;8.20;99.90;;;;;;5008174;28;20078;-81
2020/12/20 02:46:25;;;;;;;11.30;6.45;;;8.10;99.90;;;;;;5015161;28;20034;-79
2020/12/20 02:48:52;;;;;;;10.15;7.05;;;8.10;99.90;;;;;;4998135;28;20048;-79
2020/12/20 02:51:18;;;;;;;14.10;6.82;;;8.10;99.90;;;;;;5009431;28;20041;-79
2020/12/20 02:54:03;;;;;;;13.45;6.95;;;8.20;99.90;;;;;;4985636;28;20107;-78
2020/12/20 02:56:29;;;;;;;13.38;7.30;;;8.20;99.90;;;;;;4988385;28;20034;-78
2020/12/20 02:59:15;;;;;;;9.45;7.03;;;8.10;99.90;;;;;;4990341;28;20087;-78
2020/12/20 03:01:41;;;;;;;11.82;7.07;;;8.10;99.90;;;;;;5003784;28;20038;-77
2020/12/20 03:04:07;;;;;;;12.80;7.68;;;8.10;99.90;;;;;;5006874;28;20042;-80
2020/12/20 03:06:33;;;;;;;10.98;7.20;;;8.20;99.90;;;;;;4989978;28;20460;-78
2020/12/20 03:09:18;;;;;;;10.27;6.82;;;8.10;99.90;;;;;;4986146;28;20128;-79
2020/12/20 03:12:04;;;;;;;11.63;6.88;;;8.10;99.90;;;;;;4990080;28;20133;-80
2020/12/20 03:14:30;;;;;;;9.90;6.28;;;8.10;99.90;;;;;;4977042;28;20110;-78
2020/12/20 03:16:56;;;;;;;13.32;7.53;;;8.10;99.90;;;;;;4990461;28;20045;-79
2020/12/20 03:19:21;;;;;;;9.65;6.78;;;8.10;99.90;;;;;;5000058;28;20044;-78
2020/12/20 03:21:47;;;;;;;13.02;7.25;;;8.10;99.90;;;;;;5000032;28;20068;-77
2020/12/20 03:24:13;;;;;;;10.23;6.85;;;8.10;99.90;;;;;;5008268;28;20069;-78
2020/12/20 03:26:39;;;;;;;12.45;7.00;;;8.10;99.90;;;;;;5003220;28;20065;-79
2020/12/20 03:29:04;;;;;;;12.48;7.35;;;8.10;99.90;;;;;;5009016;28;20034;-79
2020/12/20 03:31:31;;;;;;;11.38;7.50;;;8.10;99.90;;;;;;4992721;28;20041;-79
2020/12/20 03:34:16;;;;;;;10.50;7.18;;;8.10;99.90;;;;;;4986482;28;20073;-78
2020/12/20 03:36:42;;;;;;;13.55;7.10;;;8.00;99.90;;;;;;4986078;28;20084;-78
2020/12/20 03:39:28;;;;;;;15.52;7.60;;;8.00;99.90;;;;;;4992366;28;20062;-78
2020/12/20 03:41:53;;;;;;;10.68;6.78;;;8.00;99.90;;;;;;5005616;28;20040;-78
2020/12/20 03:44:19;;;;;;;10.95;7.53;;;8.10;99.90;;;;;;4993248;28;20138;-77
2020/12/20 03:46:45;;;;;;;14.07;7.93;;;8.00;99.90;;;;;;5011051;28;20060;-78
2020/12/20 03:49:11;;;;;;;11.10;7.38;;;8.10;99.90;;;;;;5010646;28;20038;-79
2020/12/20 03:51:36;;;;;;;13.48;7.78;;;8.10;99.90;;;;;;4997918;28;20054;-79
2020/12/20 03:54:03;;;;;;;12.05;8.40;;;8.10;99.90;;;;;;4998287;28;20093;-79
2020/12/20 03:56:30;;;;;;;15.05;7.57;;;8.20;99.90;;;;;;4990125;28;20132;-78
2020/12/20 03:59:15;;;;;;;15.63;6.97;;;8.20;99.90;;;;;;4970973;28;20054;-78
2020/12/20 04:01:41;;;;;;;17.50;8.00;;;8.20;99.90;;;;;;5003326;28;20312;-79
2020/12/20 04:04:07;;;;;;;17.98;7.63;;;8.10;99.90;;;;;;5005222;28;20431;-79
2020/12/20 04:06:33;;;;;;;12.52;6.88;;;8.10;99.90;;;;;;5000263;28;20049;-77
2020/12/20 04:08:59;;;;;;;10.63;6.72;;;8.10;99.90;;;;;;5009708;28;20483;-78
2020/12/20 04:11:24;;;;;;;13.90;6.88;;;8.20;99.90;;;;;;4976281;28;20088;-78
2020/12/20 04:13:50;;;;;;;9.52;6.43;;;8.20;99.90;;;;;;4991512;28;20041;-78
2020/12/20 04:16:36;;;;;;;12.25;7.28;;;8.10;99.90;;;;;;4984889;28;20044;-78
2020/12/20 04:19:22;;;;;;;11.27;6.43;;;8.10;99.90;;;;;;4988386;28;20510;-79
2020/12/20 04:22:08;;;;;;;14.40;7.10;;;8.10;99.90;;;;;;4989363;28;20117;-77
2020/12/20 04:24:33;;;;;;;12.48;6.97;;;8.10;99.90;;;;;;5006670;28;20468;-78
2020/12/20 04:27:19;;;;;;;11.23;7.13;;;8.10;99.90;;;;;;4994982;28;20467;-77
2020/12/20 04:29:45;;;;;;;13.38;7.35;;;8.10;99.90;;;;;;4974205;28;20056;-77
2020/12/20 04:32:10;;;;;;;12.65;7.40;;;8.10;99.90;;;;;;5010309;28;20042;-77
2020/12/20 04:34:56;;;;;;;11.35;7.35;;;8.10;99.90;;;;;;4967828;28;20061;-79
2020/12/20 04:37:22;;;;;;;10.68;6.93;;;8.10;99.90;;;;;;5009685;28;20038;-79
2020/12/20 04:40:08;;;;;;;12.77;7.05;;;8.00;99.90;;;;;;4983825;28;20443;-79
2020/12/20 04:42:34;;;;;;;;;;;8.00;99.90;;;;;;4988005;28;20125;-79
2020/12/20 04:45:00;;;;;;;10.95;6.97;;;8.00;99.90;;;;;;5005161;28;20015;-77
2020/12/20 04:47:27;;;;;;;12.05;7.55;;;8.00;99.90;;;;;;5012150;28;20034;-78
2020/12/20 04:49:53;;;;;;;11.02;6.68;;;8.00;99.90;;;;;;5011940;28;20157;-79
2020/12/20 04:52:19;;;;;;;;;;;7.90;99.90;;;;;;4969682;28;20092;-77
2020/12/20 04:55:05;;;;;;;12.65;7.20;;;7.90;99.90;;;;;;4987111;28;19926;-78
2020/12/20 04:57:52;;;;;;;15.43;7.63;;;7.90;99.90;;;;;;4999003;28;20050;-80
2020/12/20 05:00:19;;;;;;;14.20;7.65;;;7.90;99.90;;;;;;5014457;28;20025;-78
2020/12/20 05:02:45;;;;;;;12.43;7.50;;;7.90;99.90;;;;;;5014672;28;20046;-77
2020/12/20 05:05:31;;;;;;;12.07;7.43;;;7.80;99.90;;;;;;4999151;28;20050;-78
2020/12/20 05:07:57;;;;;;;15.85;7.50;;;7.80;99.90;;;;;;5014328;28;20046;-78
2020/12/20 05:10:43;;;;;;;11.57;6.95;;;7.80;99.90;;;;;;5000444;28;20472;-78
2020/12/20 05:13:09;;;;;;;11.57;7.30;;;7.80;99.90;;;;;;4995685;28;20065;-79
2020/12/20 05:15:34;;;;;;;13.63;7.50;;;7.90;99.90;;;;;;5009996;28;20038;-79
2020/12/20 05:18:22;;;;;;;17.08;8.00;;;7.70;99.90;;;;;;4998451;28;20068;-79
2020/12/20 05:21:08;;;;;;;12.93;7.32;;;7.70;99.90;;;;;;4981958;28;20081;-79
2020/12/20 05:23:54;;;;;;;16.85;7.30;;;7.60;99.90;;;;;;4991500;28;20046;-79
2020/12/20 05:26:31;;;;;;;15.98;7.57;;;7.50;99.90;;;;;;5001467;28;20042;-80
2020/12/20 05:29:12;;;;;;;11.98;7.10;;;7.50;99.90;;;;;;5009316;28;20048;-79
2020/12/20 05:31:57;;;;;;;11.85;6.65;;;7.50;99.90;;;;;;4983989;28;20050;-79
2020/12/20 05:34:23;;;;;;;13.23;7.68;;;7.50;99.90;;;;;;4994723;28;20141;-79
2020/12/20 05:36:49;;;;;;;;;;;7.60;99.90;;;;;;5000861;28;20045;-78
2020/12/20 05:39:18;;;;;;;14.23;7.93;;;7.60;99.90;;;;;;4992718;28;19964;-79
2020/12/20 05:41:45;;;;;;;14.95;8.25;;;7.60;99.90;;;;;;5003811;28;20440;-78
2020/12/20 05:44:23;;;;;;;13.68;8.75;;;7.60;99.90;;;;;;5012660;28;20061;-78
2020/12/20 05:46:50;;;;;;;11.50;7.82;;;7.60;99.90;;;;;;5014000;28;20038;-79
2020/12/20 05:49:17;;;;;;;12.50;6.75;;;7.60;99.90;;;;;;4995149;28;20037;-79
2020/12/20 05:52:11;;;;;;;13.18;7.50;;;7.60;99.90;;;;;;4987833;28;20050;-78
2020/12/20 05:54:42;;;;;;;12.13;7.80;;;7.60;99.90;;;;;;5001928;28;20062;-78
2020/12/20 05:57:11;;;;;;;14.80;7.80;;;7.60;99.90;;;;;;5012391;28;20057;-78
2020/12/20 05:59:38;;;;;;;13.45;7.50;;;7.50;99.90;;;;;;5012374;28;20098;-78
2020/12/20 06:02:05;;;;;;;13.13;7.80;;;7.50;99.90;;;;;;5004878;28;20042;-78
2020/12/20 06:04:32;;;;;;;11.43;6.57;;;7.40;99.90;;;;;;4999104;28;20030;-78
2020/12/20 06:07:25;;;;;;;13.60;7.68;;;7.40;99.90;;;;;;4980188;28;20057;-78
2020/12/20 06:09:56;;;;;;;14.10;7.25;;;7.40;99.90;;;;;;5003470;28;20044;-78
2020/12/20 06:12:24;;;;;;;12.52;7.38;;;7.40;99.90;;;;;;4984532;28;20038;-78
2020/12/20 06:14:51;;;;;;;15.43;7.43;;;7.40;99.90;;;;;;5006635;28;20041;-78
2020/12/20 06:17:43;;;;;;;15.65;7.70;;;7.40;99.90;;;;;;4994448;28;20443;-79
2020/12/20 06:20:26;;;;;;;10.88;7.05;;;7.30;99.90;;;;;;5001610;28;20122;-79
2020/12/20 06:22:53;;;;;;;13.90;8.20;;;7.30;99.90;;;;;;5009649;28;20468;-80
2020/12/20 06:25:44;;;;;;;15.57;8.38;;;7.30;99.90;;;;;;4984599;28;20455;-79
2020/12/20 06:28:17;;;;;;;15.68;7.97;;;7.30;99.90;;;;;;5013550;28;20038;-79
2020/12/20 06:30:45;;;;;;;13.45;8.02;;;7.20;99.90;;;;;;5001186;28;20042;-79
2020/12/20 06:33:23;;;;;;;15.43;8.27;;;7.30;99.90;;;;;;4992978;28;20400;-80
2020/12/20 06:35:50;;;;;;;14.23;7.30;;;7.30;99.90;;;;;;5005543;28;20259;-80
2020/12/20 06:38:19;;;;;;;14.80;7.72;;;7.20;99.90;;;;;;5000415;28;20037;-79
2020/12/20 06:40:45;;;;;;;17.35;7.80;;;7.30;99.90;;;;;;4999513;28;20506;-78
2020/12/20 06:43:11;;;;;;;14.48;8.30;;;7.30;99.90;;;;;;4985412;28;20050;-80
2020/12/20 06:45:56;;;;;;;19.48;8.20;;;7.30;99.90;;;;;;4994727;28;20045;-79
2020/12/20 06:48:38;;;;;;;13.38;7.57;;;7.30;99.90;;;;;;5001722;28;20057;-79
2020/12/20 06:51:06;;;;;;;13.85;7.88;;;7.30;99.90;;;;;;5005634;28;20045;-80
2020/12/20 06:53:49;;;;;;;12.45;7.63;;;7.30;99.90;;;;;;4994638;28;20037;-78
2020/12/20 06:56:34;;;;;;;15.20;7.78;;;7.30;99.90;;;;;;4986337;28;20045;-77
2020/12/20 06:59:00;;;;;;;13.98;7.97;;;7.30;99.90;;;;;;4980853;28;20042;-78
2020/12/20 07:01:40;;;;;;;13.27;7.68;;;7.30;99.90;;;;;;5003210;28;20051;-77
2020/12/20 07:04:40;;;;;;;14.18;8.60;;;7.30;99.90;;;;;;4984942;28;20080;-76
2020/12/20 07:07:26;;;;;;;16.25;8.05;;;7.30;99.90;;;;;;4988804;28;20057;-76
2020/12/20 07:09:52;;;;;;;15.88;8.18;;;7.20;99.90;;;;;;4995405;28;20030;-76
2020/12/20 07:12:43;;;;;;;13.43;7.30;;;7.30;99.90;;;;;;4993347;28;20038;-76
2020/12/20 07:15:47;;;;;;;14.93;8.40;;;7.30;99.90;;;;;;4987443;28;20041;-76
2020/12/20 07:18:57;;;;;;;20.13;9.25;;;7.30;99.90;;;;;;4985287;28;20046;-76
2020/12/20 07:21:22;;;;;;;15.65;9.27;;;7.30;99.90;;;;;;5004663;28;20391;-79
2020/12/20 07:24:00;;;;;;;17.30;9.18;;;7.40;99.90;;;;;;5010540;28;20042;-79
2020/12/20 07:26:26;;;;;;;14.20;8.43;;;7.40;99.90;;;;;;4995748;28;20073;-78
2020/12/20 07:28:56;;;;;;;14.10;8.82;;;7.40;99.90;;;;;;4995762;28;20062;-79
2020/12/20 07:31:43;;;;;;;15.45;8.60;;;7.40;99.90;;;;;;4976657;28;20054;-79
2020/12/20 07:34:09;;;;;;;15.38;8.85;;;7.40;99.90;;;;;;4995380;28;20030;-79
2020/12/20 07:36:35;;;;;;;16.17;8.13;;;7.40;99.90;;;;;;4985879;28;20099;-78
2020/12/20 07:39:02;;;;;;;;;;;7.50;99.90;;;;;;4998198;28;20045;-80
2020/12/20 07:41:48;;;;;;;19.60;8.20;;;7.50;99.90;;;;;;4995467;28;19917;-77
2020/12/20 07:44:14;;;;;;;13.65;8.07;;;7.50;99.90;;;;;;4974731;28;20048;-78
2020/12/20 07:46:40;;;;;;;15.63;9.10;;;7.50;99.90;;;;;;5007215;28;20033;-79
2020/12/20 07:49:26;;;;;;;17.40;8.52;;;7.50;99.90;;;;;;4977008;28;20081;-80
2020/12/20 07:51:53;;;;;;;12.45;7.93;;;7.60;99.90;;;;;;5008019;28;20514;-79
2020/12/20 07:54:18;;;;;;;14.93;7.55;;;7.60;99.90;;;;;;4989409;28;20053;-77
2020/12/20 07:56:46;;;;;;;15.60;8.15;;;7.60;99.90;;;;;;4993895;28;20042;-78
2020/12/20 07:59:17;;;;;;;14.02;7.97;;;7.60;99.90;;;;;;5005403;28;20042;-79
2020/12/20 08:01:45;;;;;;;13.35;8.38;;;7.60;99.90;;;;;;5000415;28;20396;-78
2020/12/20 08:04:20;;;;;;;13.93;9.30;;;7.50;99.90;;;;;;5006739;28;20042;-79
2020/12/20 08:06:53;;;;;;;15.00;8.38;;;7.50;99.90;;;;;;4990608;28;20041;-79
2020/12/20 08:09:22;;;;;;;14.38;8.57;;;7.50;99.90;;;;;;4989754;28;20045;-78
2020/12/20 08:11:49;;;;;;;15.93;8.45;;;7.50;99.90;;;;;;5010777;28;20045;-78
2020/12/20 08:14:35;;;;;;;13.52;8.07;;;7.40;99.90;;;;;;4983645;28;20123;-78
2020/12/20 08:17:01;;;;;;;18.20;9.77;;;7.50;99.90;;;;;;5006133;28;20034;-77
2020/12/20 08:19:47;;;;;;;15.55;8.40;;;7.50;99.90;;;;;;4986585;28;20423;-78
2020/12/20 08:22:14;;;;;;;14.88;8.15;;;7.50;99.90;;;;;;5004376;28;20042;-78
2020/12/20 08:24:46;;;;;;;19.08;8.98;;;7.50;99.90;;;;;;5009500;28;20049;-78
2020/12/20 08:27:21;;;;;;;14.48;7.75;;;7.50;99.90;;;;;;5008196;28;20034;-79
2020/12/20 08:29:49;;;;;;;14.63;8.05;;;7.50;99.90;;;;;;5002059;28;20100;-78
2020/12/20 08:32:21;;;;;;;18.58;8.45;;;7.50;99.90;;;;;;5005800;28;20057;-80
2020/12/20 08:34:47;;;;;;;17.92;8.75;;;7.50;99.90;;;;;;4998557;28;20399;-79
2020/12/20 08:37:18;;;;;;;14.73;7.95;;;7.50;99.90;;;;;;5003873;28;20042;-81
2020/12/20 08:39:44;;;;;;;16.65;7.68;;;7.60;99.90;;;;;;5007039;28;20049;-79
2020/12/20 08:42:33;;;;;;;15.55;7.47;;;7.60;99.90;;;;;;4990020;28;20043;-79
2020/12/20 08:45:22;;;;;;;15.88;7.68;;;7.60;99.90;;;;;;5007676;28;20037;-78
2020/12/20 08:48:08;;;;;;;11.68;7.95;;;7.60;99.90;;;;;;4993099;28;20050;-79
2020/12/20 08:50:34;;;;;;;13.45;7.55;;;7.60;99.90;;;;;;5010098;28;20037;-81
2020/12/20 08:53:23;;;;;;;15.57;7.93;;;7.70;99.90;;;;;;4970540;28;20455;-78
2020/12/20 08:55:49;;;;;;;13.23;7.43;;;7.80;99.90;;;;;;5010115;28;20289;-79
2020/12/20 08:58:18;;;;;;;14.60;6.90;;;7.80;99.90;;;;;;5012159;28;20049;-80
2020/12/20 09:00:44;;;;;;;10.90;7.20;;;7.80;99.90;;;;;;5000290;28;20471;-79
2020/12/20 09:03:09;;;;;;;15.43;7.03;;;7.90;99.90;;;;;;5008557;28;20076;-79
2020/12/20 09:05:35;;;;;;;11.10;7.50;;;7.90;99.90;;;;;;4983254;28;20062;-79
2020/12/20 09:08:04;;;;;;;13.45;7.25;;;8.00;99.90;;;;;;4993878;28;20043;-79
2020/12/20 09:10:34;;;;;;;10.70;7.07;;;8.00;99.90;;;;;;5005961;28;20045;-79
2020/12/20 09:13:03;;;;;;;10.00;7.20;;;8.00;99.90;;;;;;4995182;28;20038;-79
2020/12/20 09:15:29;;;;;;;12.80;7.00;;;8.10;99.90;;;;;;4980151;28;20053;-80
2020/12/20 09:17:58;;;;;;;13.93;7.30;;;8.10;99.90;;;;;;5003871;28;20042;-80
2020/12/20 09:20:25;;;;;;;11.07;6.80;;;8.10;99.90;;;;;;4994672;28;20149;-79
2020/12/20 09:22:56;;;;;;;18.85;6.95;;;8.10;99.90;;;;;;5002534;28;20041;-79
2020/12/20 09:25:43;;;;;;;13.13;6.53;;;8.10;99.90;;;;;;4983790;28;20400;-78
2020/12/20 09:28:20;;;;;;;14.85;6.75;;;8.10;99.90;;;;;;4983989;28;20045;-80
2020/12/20 09:31:16;;;;;;;14.07;6.82;;;8.10;99.90;;;;;;4980290;28;20268;-79
2020/12/20 09:33:51;;;;;;;14.90;7.65;;;8.20;99.90;;;;;;4994616;28;20488;-80
2020/12/20 09:36:22;;;;;;;11.45;6.30;;;8.20;99.90;;;;;;4995623;28;20046;-79
2020/12/20 09:39:08;;;;;;;13.48;7.22;;;8.20;99.90;;;;;;5004034;28;20513;-81
2020/12/20 09:41:35;;;;;;;16.35;8.00;;;8.30;99.90;;;;;;5013859;28;20033;-76
2020/12/20 09:44:00;;;;;;;11.65;6.30;;;8.20;99.90;;;;;;5010850;28;20499;-76
2020/12/20 09:46:29;;;;;;;14.95;7.75;;;8.30;99.90;;;;;;5012539;28;20107;-76
2020/12/20 09:49:18;;;;;;;11.77;7.20;;;8.30;99.90;;;;;;4984761;28;20061;-75
2020/12/20 09:51:44;;;;;;;11.63;7.40;;;8.30;99.90;;;;;;4993939;28;20034;-80
2020/12/20 09:54:29;;;;;;;10.55;6.72;;;8.30;99.90;;;;;;4981273;28;20046;-80
2020/12/20 09:56:55;;;;;;;13.05;7.53;;;8.40;99.90;;;;;;5015751;28;20038;-80
2020/12/20 09:59:21;;;;;;;13.30;6.53;;;8.40;99.90;;;;;;5008140;28;20496;-80
2020/12/20 10:02:06;;;;;;;11.70;6.80;;;8.40;99.90;;;;;;4972075;28;20056;-80
2020/12/20 10:04:34;;;;;;;10.65;7.10;;;8.50;99.90;;;;;;5012624;28;20041;-80
2020/12/20 10:07:00;;;;;;;15.65;7.80;;;8.50;99.90;;;;;;5003350;28;20101;-80
2020/12/20 10:09:47;;;;;;;16.90;7.63;;;8.50;99.90;;;;;;4985728;28;20038;-80
2020/12/20 10:12:16;;;;;;;18.80;7.63;;;8.50;99.90;;;;;;4991488;28;20050;-80
2020/12/20 10:14:42;;;;;;;17.05;8.20;;;8.60;99.90;;;;;;4996389;28;20034;-80
2020/12/20 10:17:09;;;;;;;17.05;7.25;;;8.60;99.90;;;;;;4978388;28;20100;-80
2020/12/20 10:19:55;;;;;;;13.00;6.70;;;8.60;99.90;;;;;;5002172;28;20046;-78
2020/12/20 10:22:20;;;;;;;11.45;7.38;;;8.60;99.90;;;;;;4988396;28;20065;-79
2020/12/20 10:24:46;;;;;;;13.25;7.20;;;8.70;99.90;;;;;;5011239;28;20050;-79
2020/12/20 10:27:12;;;;;;;12.80;7.53;;;8.70;99.90;;;;;;5009987;28;20586;-78
2020/12/20 10:29:38;;;;;;;14.50;8.07;;;8.80;99.90;;;;;;5007817;28;20052;-80
2020/12/20 10:32:05;;;;;;;15.30;8.32;;;8.90;99.90;;;;;;5009449;28;20067;-78
2020/12/20 10:34:31;;;;;;;13.20;7.40;;;8.80;99.90;;;;;;5001254;28;20034;-79
2020/12/20 10:36:56;;;;;;;18.45;8.02;;;8.90;99.90;;;;;;4996816;28;20065;-79
2020/12/20 10:39:42;;;;;;;16.65;7.93;;;8.90;99.90;;;;;;5005458;28;20097;-78
2020/12/20 10:42:13;;;;;;;13.25;7.53;;;9.00;99.90;;;;;;4993621;28;20034;-79
2020/12/20 10:44:39;;;;;;;17.58;8.52;;;9.00;99.90;;;;;;5002093;28;20039;-79
2020/12/20 10:47:04;;;;;;;19.33;8.13;;;9.00;99.90;;;;;;5014492;28;20089;-78
2020/12/20 10:49:51;;;;;;;14.73;8.35;;;9.10;99.90;;;;;;4993952;28;20041;-78
2020/12/20 10:52:18;;;;;;;15.77;7.45;;;9.10;99.90;;;;;;4978829;28;20483;-78
2020/12/20 10:54:44;;;;;;;;;;;9.10;99.90;;;;;;4999722;28;20088;-79
2020/12/20 10:57:10;;;;;;;14.70;9.05;;;9.10;99.90;;;;;;5001971;28;20055;-79
2020/12/20 10:59:36;;;;;;;19.38;10.07;;;9.10;99.90;;;;;;5011299;28;20113;-78
2020/12/20 11:02:02;;;;;;;;;;;9.10;99.90;;;;;;5008514;28;20057;-79
2020/12/20 11:04:28;;;;;;;15.23;8.10;;;9.10;99.90;;;;;;5005740;28;19942;-78
2020/12/20 11:06:57;;;;;;;29.38;9.32;;;9.10;99.90;;;;;;4958590;28;20124;-78
2020/12/20 11:09:26;;;;;;;17.88;9.23;;;9.20;99.90;;;;;;5007916;28;20124;-78
2020/12/20 11:12:12;;;;;;;18.67;8.90;;;9.20;99.90;;;;;;4991784;28;20042;-78
2020/12/20 11:14:39;;;;;;;21.05;9.13;;;9.20;99.90;;;;;;4987413;28;20369;-80
2020/12/20 11:17:04;;;;;;;14.70;8.57;;;9.20;99.90;;;;;;4983183;28;20093;-78
2020/12/20 11:19:30;;;;;;;17.52;8.63;;;9.30;99.90;;;;;;4992571;28;20562;-79
2020/12/20 11:21:56;;;;;;;17.65;8.98;;;9.30;99.90;;;;;;5003144;28;20065;-77
2020/12/20 11:24:42;;;;;;;22.30;9.20;;;9.30;99.90;;;;;;4996735;28;20096;-79
2020/12/20 11:27:08;;;;;;;17.92;8.95;;;9.30;99.90;;;;;;5001077;28;20282;-78
2020/12/20 11:29:34;;;;;;;13.38;7.78;;;9.30;99.90;;;;;;4990718;28;20041;-78
2020/12/20 11:32:20;;;;;;;16.52;7.78;;;9.40;99.90;;;;;;4991012;28;20117;-79
2020/12/20 11:34:45;;;;;;;18.75;8.63;;;9.30;99.90;;;;;;4991737;28;20431;-79
2020/12/20 11:37:11;;;;;;;17.02;8.38;;;9.30;99.90;;;;;;5019498;28;20038;-79
2020/12/20 11:39:37;;;;;;;17.52;9.40;;;9.30;99.90;;;;;;4992810;28;20039;-77
2020/12/20 11:42:03;;;;;;;17.73;8.82;;;9.30;99.90;;;;;;5006870;28;20038;-79
2020/12/20 11:44:29;;;;;;;14.45;8.70;;;9.40;99.90;;;;;;5005735;28;20125;-79
2020/12/20 11:46:54;;;;;;;17.05;9.00;;;9.30;99.90;;;;;;5008117;28;20051;-79
2020/12/20 11:49:40;;;;;;;19.02;8.82;;;9.30;99.90;;;;;;4981972;28;20050;-79
2020/12/20 11:52:28;;;;;;;16.38;8.68;;;9.50;99.90;;;;;;4984574;28;20084;-79
2020/12/20 11:55:14;;;;;;;15.40;8.68;;;9.40;99.90;;;;;;4990769;28;20129;-79
2020/12/20 11:57:39;;;;;;;14.85;8.10;;;9.50;99.90;;;;;;5006472;28;20117;-79
2020/12/20 12:00:05;;;;;;;18.50;9.23;;;9.50;99.90;;;;;;5013938;28;20040;-79
2020/12/20 12:02:52;;;;;;;18.75;8.95;;;9.50;99.90;;;;;;4988971;28;20129;-79
2020/12/20 12:05:18;;;;;;;19.30;9.50;;;9.60;99.90;;;;;;4996592;28;20042;-79
2020/12/20 12:07:44;;;;;;;16.60;9.80;;;9.60;99.90;;;;;;4996665;28;20505;-79
2020/12/20 12:10:10;;;;;;;16.50;9.13;;;9.70;99.90;;;;;;5013762;28;20048;-79
2020/12/20 12:12:35;;;;;;;;;;;9.70;99.90;;;;;;5020727;28;20038;-80
2020/12/20 12:15:02;;;;;;;16.73;8.45;;;9.70;99.90;;;;;;4995363;28;19921;-79
2020/12/20 12:17:28;;;;;;;17.55;9.57;;;9.70;99.80;;;;;;4998099;28;20109;-79
2020/12/20 12:19:55;;;;;;;18.13;9.10;;;9.70;99.70;;;;;;4985599;28;20108;-78
2020/12/20 12:22:22;;;;;;;17.48;9.65;;;9.70;99.90;;;;;;4976759;28;20038;-78
2020/12/20 12:25:08;;;;;;;17.05;9.43;;;9.70;99.90;;;;;;4966135;28;20452;-79
2020/12/20 12:27:34;;;;;;;18.52;9.07;;;9.70;99.80;;;;;;4997278;28;20157;-78
2020/12/20 12:30:00;;;;;;;16.77;9.50;;;9.70;99.60;;;;;;5001842;28;20133;-78
2020/12/20 12:32:46;;;;;;;21.55;10.13;;;9.80;99.60;;;;;;4993819;28;20058;-79
2020/12/20 12:35:32;;;;;;;15.63;8.82;;;9.70;99.70;;;;;;4980058;28;20050;-78
2020/12/20 12:37:57;;;;;;;20.20;9.00;;;9.70;99.50;;;;;;5006473;28;20037;-79
2020/12/20 12:40:43;;;;;;;16.23;9.80;;;9.70;99.40;;;;;;5001560;28;20045;-79
2020/12/20 12:43:09;;;;;;;15.82;9.18;;;9.80;99.40;;;;;;4995887;28;20057;-77
2020/12/20 12:45:55;;;;;;;18.85;9.35;;;9.80;99.20;;;;;;4980342;28;20053;-78
2020/12/20 12:48:21;;;;;;;20.00;10.82;;;9.80;98.90;;;;;;4998934;28;20089;-78
2020/12/20 12:50:47;;;;;;;21.02;9.45;;;9.70;98.70;;;;;;5014280;28;20069;-78
2020/12/20 12:53:12;;;;;;;18.70;9.95;;;9.70;99.00;;;;;;5014591;28;20181;-78
2020/12/20 12:55:58;;;;;;;16.65;9.15;;;9.70;99.00;;;;;;5001459;28;20050;-78
2020/12/20 12:58:27;;;;;;;15.95;8.55;;;9.60;99.00;;;;;;5015658;28;20129;-78
2020/12/20 13:01:12;;;;;;;21.25;9.40;;;9.60;99.10;;;;;;4987513;28;20053;-79
2020/12/20 13:03:39;;;;;;;14.20;9.27;;;9.60;99.20;;;;;;5000351;28;20046;-78
2020/12/20 13:06:25;;;;;;;18.02;8.95;;;9.70;99.10;;;;;;5003723;28;20494;-78
2020/12/20 13:08:51;;;;;;;17.38;8.95;;;9.60;99.10;;;;;;5015035;28;20038;-78
2020/12/20 13:11:25;;;;;;;16.00;9.00;;;9.70;99.10;;;;;;5012607;28;20100;-78
2020/12/20 13:13:50;;;;;;;13.13;8.20;;;9.70;98.60;;;;;;5000313;28;20391;-78
2020/12/20 13:16:17;;;;;;;17.17;8.98;;;9.80;98.80;;;;;;4995946;28;20052;-78
2020/12/20 13:18:44;;;;;;;17.63;9.85;;;9.80;98.90;;;;;;5013466;28;20072;-78